createdAt,value
2023-03-17T00:01:51.141Z,4.71
2023-03-17T00:06:56.728Z,4.70
2023-03-17T00:12:00.781Z,4.69
2023-03-17T00:17:02.475Z,4.74
2023-03-17T00:22:06.726Z,4.75
2023-03-17T00:27:13.260Z,4.80
2023-03-17T00:32:17.686Z,4.84
2023-03-17T00:37:21.831Z,4.84
2023-03-17T00:42:26.814Z,4.81
2023-03-17T00:47:30.855Z,4.80
2023-03-17T00:52:36.242Z,4.78
2023-03-17T00:57:39.419Z,4.74
2023-03-17T01:02:41.435Z,4.80
2023-03-17T01:07:48.118Z,4.77
2023-03-17T01:12:53.352Z,4.75
2023-03-17T01:17:57.577Z,4.73
2023-03-17T01:23:00.520Z,4.71
2023-03-17T01:28:02.256Z,4.71
2023-03-17T01:33:08.479Z,4.68
2023-03-17T01:38:10.612Z,4.65
2023-03-17T01:43:12.514Z,4.63
2023-03-17T01:48:15.265Z,4.61
2023-03-17T01:53:20.467Z,4.63
2023-03-17T01:58:24.179Z,4.62
2023-03-17T02:03:29.819Z,4.64
2023-03-17T02:08:33.974Z,4.64
2023-03-17T02:13:37.216Z,4.65
2023-03-17T02:18:38.918Z,4.67
2023-03-17T02:23:43.679Z,4.68
2023-03-17T02:28:46.148Z,4.70
2023-03-17T02:33:47.889Z,4.64
2023-03-17T02:38:49.823Z,4.60
2023-03-17T02:43:56.935Z,4.56
2023-03-17T02:49:02.031Z,4.48
2023-03-17T02:54:06.367Z,4.45
2023-03-17T02:59:10.221Z,4.42
2023-03-17T03:04:12.012Z,4.42
2023-03-17T03:09:15.179Z,4.41
2023-03-17T03:14:17.038Z,4.43
2023-03-17T03:19:18.742Z,4.46
2023-03-17T03:24:22.924Z,4.49
2023-03-17T03:29:24.696Z,4.48
2023-03-17T03:34:33.197Z,4.42
2023-03-17T03:39:39.436Z,4.34
2023-03-17T03:44:43.230Z,4.23
2023-03-17T03:49:47.273Z,4.13
2023-03-17T03:54:51.213Z,4.06
2023-03-17T03:59:56.148Z,4.07
2023-03-17T04:05:00.090Z,4.09
2023-03-17T04:10:04.589Z,4.12
2023-03-17T04:15:09.147Z,4.18
2023-03-17T04:20:14.649Z,4.26
2023-03-17T04:25:21.630Z,4.24
2023-03-17T04:30:23.388Z,4.17
2023-03-17T04:35:25.098Z,4.17
2023-03-17T04:40:29.517Z,4.17
2023-03-17T04:45:33.750Z,4.24
2023-03-17T04:50:35.655Z,4.32
2023-03-17T04:55:37.551Z,4.34
2023-03-17T05:00:39.441Z,4.37
2023-03-17T05:05:41.144Z,4.37
2023-03-17T05:10:42.926Z,4.33
2023-03-17T05:15:47.743Z,4.27
2023-03-17T05:20:51.731Z,4.24
2023-03-17T05:25:53.734Z,4.21
2023-03-17T05:30:58.353Z,4.17
2023-03-17T05:36:02.434Z,4.16
2023-03-17T05:41:04.281Z,4.14
2023-03-17T05:46:06.060Z,4.11
2023-03-17T05:51:08.221Z,4.03
2023-03-17T05:56:12.786Z,3.99
2023-03-17T06:01:14.560Z,4.01
2023-03-17T06:06:18.710Z,4.06
2023-03-17T06:11:21.487Z,4.06
2023-03-17T06:16:23.381Z,4.10
2023-03-17T06:21:25.662Z,4.13
2023-03-17T06:26:29.684Z,4.18
2023-03-17T06:31:31.442Z,4.26
2023-03-17T06:36:33.656Z,4.41
2023-03-17T06:41:35.945Z,4.63
2023-03-17T06:46:40.064Z,4.83
2023-03-17T06:51:46.707Z,5.00
2023-03-17T06:56:48.388Z,5.37
2023-03-17T07:01:52.442Z,5.70
2023-03-17T07:06:54.536Z,5.76
2023-03-17T07:12:04.885Z,5.73
2023-03-17T07:17:12.144Z,5.73
2023-03-17T07:22:13.914Z,5.76
2023-03-17T07:27:18.816Z,5.90
2023-03-17T07:32:24.710Z,5.89
2023-03-17T07:37:26.416Z,6.02
2023-03-17T07:42:30.459Z,6.31
2023-03-17T07:47:34.510Z,6.58
2023-03-17T07:52:38.487Z,6.79
2023-03-17T07:57:43.411Z,6.99
2023-03-17T08:02:48.137Z,7.36
2023-03-17T08:07:53.722Z,7.60
2023-03-17T08:13:00.822Z,7.51
2023-03-17T08:18:02.519Z,7.57
2023-03-17T08:23:04.296Z,7.63
2023-03-17T08:28:09.475Z,7.52
2023-03-17T08:33:11.324Z,7.24
2023-03-17T08:38:16.086Z,7.28
2023-03-17T08:43:18.802Z,7.50
2023-03-17T08:48:23.089Z,7.70
2023-03-17T08:53:28.270Z,7.90
2023-03-17T08:58:30.206Z,8.19
2023-03-17T09:03:33.106Z,8.51
2023-03-17T09:08:38.637Z,8.84
2023-03-17T09:13:41.558Z,9.18
2023-03-17T09:18:44.455Z,9.36
2023-03-17T09:23:46.954Z,9.46
2023-03-17T09:28:51.524Z,9.84
2023-03-17T09:33:53.573Z,10.21
2023-03-17T09:38:55.402Z,10.71
2023-03-17T09:44:08.852Z,11.39
2023-03-17T09:49:15.078Z,11.79
2023-03-17T09:54:27.038Z,11.86
2023-03-17T09:59:34.438Z,11.81
2023-03-17T10:04:37.169Z,11.94
2023-03-17T10:09:54.061Z,12.13
2023-03-17T10:15:06.762Z,12.30
2023-03-17T10:20:13.703Z,12.32
2023-03-17T10:25:29.491Z,12.38
2023-03-17T10:30:34.537Z,12.55
2023-03-17T10:35:39.463Z,12.75
2023-03-17T10:40:55.635Z,12.76
2023-03-17T10:46:03.340Z,12.82
2023-03-17T10:51:13.277Z,12.85
2023-03-17T10:56:27.394Z,12.98
2023-03-17T11:01:29.414Z,13.17
2023-03-17T11:06:39.377Z,13.39
2023-03-17T11:11:47.059Z,13.57
2023-03-17T11:17:04.687Z,13.66
2023-03-17T11:22:21.736Z,13.67
2023-03-17T11:28:01.358Z,13.86
2023-03-17T11:33:35.452Z,14.02
2023-03-17T11:39:09.916Z,14.28
2023-03-17T11:44:37.192Z,14.41
2023-03-17T11:49:40.130Z,14.64
2023-03-17T11:55:07.880Z,15.41
2023-03-17T12:00:30.153Z,16.46
2023-03-17T12:05:37.283Z,17.22
2023-03-17T12:11:01.905Z,17.49
2023-03-17T12:16:29.441Z,17.93
2023-03-17T12:21:36.996Z,18.66
2023-03-17T12:26:52.783Z,19.10
2023-03-17T12:32:03.839Z,19.70
2023-03-17T12:37:05.724Z,19.87
2023-03-17T12:42:33.717Z,19.19
2023-03-17T12:47:57.275Z,17.86
2023-03-17T12:53:19.750Z,17.48
2023-03-17T12:58:44.101Z,18.31
2023-03-17T13:04:12.865Z,19.46
2023-03-17T13:09:30.250Z,19.99
2023-03-17T13:14:48.166Z,20.67
2023-03-17T13:20:00.674Z,20.91
2023-03-17T13:25:14.389Z,21.03
2023-03-17T13:30:26.925Z,21.31
2023-03-17T13:35:43.142Z,21.16
2023-03-17T13:40:57.015Z,20.15
2023-03-17T13:46:41.979Z,19.86
2023-03-17T13:51:59.417Z,19.02
2023-03-17T13:57:23.628Z,18.69
2023-03-17T14:02:27.947Z,18.40
2023-03-17T14:07:44.376Z,18.14
2023-03-17T14:12:55.219Z,17.85
2023-03-17T14:18:14.537Z,17.90
2023-03-17T14:23:18.606Z,18.28
2023-03-17T14:28:36.634Z,19.13
2023-03-17T14:33:42.386Z,20.14
2023-03-17T14:38:52.154Z,20.82
2023-03-17T14:43:58.476Z,20.30
2023-03-17T14:49:02.868Z,19.59
2023-03-17T14:54:13.922Z,19.17
2023-03-17T14:59:36.018Z,18.77
2023-03-17T15:04:53.326Z,18.37
2023-03-17T15:10:07.344Z,18.43
2023-03-17T15:15:23.491Z,18.18
2023-03-17T15:20:25.356Z,18.09
2023-03-17T15:25:34.451Z,18.16
2023-03-17T15:30:48.245Z,18.07
2023-03-17T15:35:52.814Z,17.89
2023-03-17T15:40:57.411Z,17.86
2023-03-17T15:46:04.723Z,17.77
2023-03-17T15:51:10.207Z,17.69
2023-03-17T15:56:19.132Z,17.42
2023-03-17T16:01:25.112Z,17.06
2023-03-17T16:06:28.297Z,16.98
2023-03-17T16:11:31.421Z,16.91
2023-03-17T16:16:37.565Z,16.80
2023-03-17T16:21:39.682Z,16.68
2023-03-17T16:26:41.373Z,16.56
2023-03-17T16:31:45.164Z,16.33
2023-03-17T16:36:48.433Z,16.03
2023-03-17T16:41:55.014Z,15.76
2023-03-17T16:46:56.870Z,15.56
2023-03-17T16:52:00.871Z,15.35
2023-03-17T16:57:02.571Z,15.13
2023-03-17T17:02:04.479Z,14.92
2023-03-17T17:07:08.606Z,14.69
2023-03-17T17:12:12.829Z,14.57
2023-03-17T17:17:14.816Z,14.51
2023-03-17T17:22:22.109Z,14.36
2023-03-17T17:27:28.406Z,14.18
2023-03-17T17:32:32.367Z,14.03
2023-03-17T17:37:34.519Z,13.90
2023-03-17T17:42:36.258Z,13.75
2023-03-17T17:47:38.325Z,13.66
2023-03-17T17:52:40.076Z,13.55
2023-03-17T17:57:42.070Z,13.41
2023-03-17T18:02:44.344Z,13.25
2023-03-17T18:07:46.209Z,13.12
2023-03-17T18:12:48.891Z,12.96
2023-03-17T18:17:51.549Z,12.81
2023-03-17T18:22:54.077Z,12.69
2023-03-17T18:28:00.901Z,12.57
2023-03-17T18:33:07.357Z,12.53
2023-03-17T18:38:09.146Z,12.46
2023-03-17T18:43:15.413Z,12.44
2023-03-17T18:48:17.270Z,12.46
2023-03-17T18:53:19.000Z,12.49
2023-03-17T18:58:20.789Z,12.45
2023-03-17T19:03:27.392Z,12.36
2023-03-17T19:08:31.636Z,12.23
2023-03-17T19:13:33.925Z,12.19
2023-03-17T19:18:36.771Z,12.10
2023-03-17T19:23:41.500Z,12.01
2023-03-17T19:28:43.604Z,11.98
2023-03-17T19:33:47.993Z,11.95
2023-03-17T19:38:53.012Z,11.95
2023-03-17T19:43:56.807Z,11.94
2023-03-17T19:48:58.654Z,11.92
2023-03-17T19:54:06.145Z,11.89
2023-03-17T19:59:08.977Z,11.85
2023-03-17T20:04:14.098Z,11.84
2023-03-17T20:09:18.117Z,11.75
2023-03-17T20:14:20.821Z,11.70
2023-03-17T20:19:22.607Z,11.68
2023-03-17T20:24:26.933Z,11.63
2023-03-17T20:29:29.240Z,11.64
2023-03-17T20:34:34.671Z,11.63
2023-03-17T20:39:38.896Z,11.63
2023-03-17T20:44:45.265Z,11.58
2023-03-17T20:49:47.923Z,11.54
2023-03-17T20:54:52.683Z,11.53
2023-03-17T20:59:55.957Z,11.50
2023-03-17T21:05:01.179Z,11.45
2023-03-17T21:10:03.121Z,11.41
2023-03-17T21:15:06.166Z,11.34
2023-03-17T21:20:12.689Z,11.29
2023-03-17T21:25:17.819Z,11.20
2023-03-17T21:30:19.472Z,11.19
2023-03-17T21:35:25.106Z,11.13
2023-03-17T21:40:32.380Z,11.14
2023-03-17T21:45:36.891Z,11.13
2023-03-17T21:50:38.658Z,11.12
2023-03-17T21:55:41.515Z,11.12
2023-03-17T22:00:46.306Z,11.08
2023-03-17T22:05:48.399Z,11.30
2023-03-17T22:10:50.090Z,11.12
2023-03-17T22:15:52.618Z,10.93
2023-03-17T22:20:57.720Z,10.79
2023-03-17T22:25:59.399Z,10.66
2023-03-17T22:31:01.885Z,10.59
2023-03-17T22:36:03.731Z,10.50
2023-03-17T22:41:10.374Z,10.40
2023-03-17T22:46:12.921Z,10.34
2023-03-17T22:51:17.472Z,10.34
2023-03-17T22:56:23.180Z,10.36
2023-03-17T23:01:25.802Z,10.38
2023-03-17T23:06:27.783Z,10.42
2023-03-17T23:11:34.215Z,10.44
2023-03-17T23:16:37.623Z,10.44
2023-03-17T23:21:41.923Z,10.47
2023-03-17T23:26:45.845Z,10.54
2023-03-17T23:31:49.989Z,10.66
2023-03-17T23:36:54.116Z,10.74
2023-03-17T23:41:55.868Z,10.84
2023-03-17T23:47:02.634Z,10.91
2023-03-17T23:52:05.250Z,10.96
2023-03-17T23:57:09.249Z,11.00
